createdAt,value
2022-11-22T00:02:25.436Z,98173.75
2022-11-22T00:05:15.127Z,98169.13
2022-11-22T00:08:04.854Z,98160.72
2022-11-22T00:10:55.746Z,98156.53
2022-11-22T00:13:45.227Z,98153.22
2022-11-22T00:16:35.215Z,98156.13
2022-11-22T00:19:24.717Z,98153.63
2022-11-22T00:22:14.509Z,98147.50
2022-11-22T00:25:07.122Z,98149.53
2022-11-22T00:27:58.242Z,98156.88
2022-11-22T00:30:47.674Z,98151.38
2022-11-22T00:33:37.079Z,98157.47
2022-11-22T00:36:26.808Z,98152.81
2022-11-22T00:39:16.216Z,98138.72
2022-11-22T00:42:06.100Z,98131.91
2022-11-22T00:44:57.036Z,98130.44
2022-11-22T00:47:46.422Z,98135.59
2022-11-22T00:50:35.793Z,98128.25
2022-11-22T00:53:25.433Z,98126.84
2022-11-22T00:56:14.876Z,98136.34
2022-11-22T00:59:04.163Z,98118.47
2022-11-22T01:01:55.264Z,98131.88
2022-11-22T01:04:44.531Z,98132.66
2022-11-22T01:07:34.131Z,98133.47
2022-11-22T01:10:23.643Z,98119.44
2022-11-22T01:13:14.113Z,98114.81
2022-11-22T01:16:04.501Z,98117.88
2022-11-22T01:18:55.143Z,98123.19
2022-11-22T01:21:44.459Z,98127.47
2022-11-22T01:24:33.735Z,98115.75
2022-11-22T01:27:23.103Z,98119.50
2022-11-22T01:30:13.876Z,98121.06
2022-11-22T01:33:03.132Z,98124.50
2022-11-22T01:35:54.334Z,98120.09
2022-11-22T01:38:43.774Z,98125.88
2022-11-22T01:41:33.364Z,98118.88
2022-11-22T01:44:26.582Z,98127.72
2022-11-22T01:47:19.140Z,98129.66
2022-11-22T01:50:16.708Z,98119.81
2022-11-22T01:53:15.205Z,98118.44
2022-11-22T01:56:08.729Z,98111.69
2022-11-22T01:59:04.691Z,98118.31
2022-11-22T02:01:55.522Z,98120.16
2022-11-22T02:04:51.318Z,98120.75
2022-11-22T02:07:50.624Z,98126.78
2022-11-22T02:10:49.023Z,98112.94
2022-11-22T02:13:43.733Z,98131.47
2022-11-22T02:16:33.215Z,98128.22
2022-11-22T02:19:34.605Z,98124.84
2022-11-22T02:22:34.543Z,98132.09
2022-11-22T02:25:31.480Z,98134.84
2022-11-22T02:28:22.245Z,98148.41
2022-11-22T02:31:31.565Z,98147.16
2022-11-22T02:34:20.894Z,98141.84
2022-11-22T02:37:11.064Z,98149.63
2022-11-22T02:40:03.291Z,98159.16
2022-11-22T02:43:00.085Z,98162.19
2022-11-22T02:45:50.922Z,98166.25
2022-11-22T02:48:43.828Z,98164.00
2022-11-22T02:51:33.195Z,98161.06
2022-11-22T02:54:22.649Z,98163.97
2022-11-22T02:57:12.195Z,98172.41
2022-11-22T03:00:01.488Z,98167.91
2022-11-22T03:02:52.840Z,98169.25
2022-11-22T03:05:42.324Z,98168.41
2022-11-22T03:08:31.686Z,98170.09
2022-11-22T03:11:21.081Z,98169.50
2022-11-22T03:14:10.455Z,98168.47
2022-11-22T03:16:59.726Z,98161.25
2022-11-22T03:19:50.500Z,98158.84
2022-11-22T03:22:39.801Z,98158.97
2022-11-22T03:25:29.557Z,98154.91
2022-11-22T03:28:18.874Z,98160.69
2022-11-22T03:31:08.570Z,98161.81
2022-11-22T03:33:58.398Z,98169.25
2022-11-22T03:36:49.252Z,98163.41
2022-11-22T03:39:38.769Z,98156.41
2022-11-22T03:42:28.168Z,98159.97
2022-11-22T03:45:17.691Z,98178.03
2022-11-22T03:48:07.473Z,98157.28
2022-11-22T03:51:05.011Z,98166.31
2022-11-22T03:53:56.003Z,98171.53
2022-11-22T03:56:45.630Z,98185.00
2022-11-22T03:59:35.095Z,98204.34
2022-11-22T04:02:24.477Z,98198.03
2022-11-22T04:05:13.988Z,98196.78
2022-11-22T04:08:03.293Z,98197.47
2022-11-22T04:10:54.630Z,98183.03
2022-11-22T04:14:00.994Z,98188.53
2022-11-22T04:16:50.244Z,98192.41
2022-11-22T04:19:59.614Z,98207.44
2022-11-22T04:22:56.833Z,98210.94
2022-11-22T04:25:48.355Z,98219.41
2022-11-22T04:29:09.283Z,98224.50
2022-11-22T04:32:06.421Z,98226.44
2022-11-22T04:34:55.951Z,98229.59
2022-11-22T04:37:51.240Z,98221.81
2022-11-22T04:40:41.382Z,98221.81
2022-11-22T04:43:49.164Z,98224.25
2022-11-22T04:46:39.905Z,98250.03
2022-11-22T04:49:29.390Z,98251.63
2022-11-22T04:52:35.934Z,98266.41
2022-11-22T04:55:25.507Z,98259.53
2022-11-22T04:58:15.660Z,98265.84
2022-11-22T05:01:06.040Z,98268.66
2022-11-22T05:03:56.697Z,98276.47
2022-11-22T05:06:46.143Z,98280.41
2022-11-22T05:09:35.427Z,98284.69
2022-11-22T05:12:24.660Z,98289.34
2022-11-22T05:15:14.367Z,98301.00
2022-11-22T05:18:03.605Z,98305.63
2022-11-22T05:20:54.806Z,98309.13
2022-11-22T05:23:54.998Z,98315.34
2022-11-22T05:26:44.394Z,98322.03
2022-11-22T05:29:33.685Z,98326.47
2022-11-22T05:32:22.936Z,98333.47
2022-11-22T05:35:12.227Z,98330.19
2022-11-22T05:38:02.846Z,98334.81
2022-11-22T05:40:52.102Z,98345.13
2022-11-22T05:43:42.214Z,98347.63
2022-11-22T05:46:32.531Z,98348.53
2022-11-22T05:49:21.825Z,98352.69
2022-11-22T05:52:11.138Z,98354.88
2022-11-22T05:55:01.930Z,98363.22
2022-11-22T05:57:51.226Z,98373.50
2022-11-22T06:00:40.501Z,98374.81
2022-11-22T06:03:29.714Z,98373.94
2022-11-22T06:06:19.521Z,98369.84
2022-11-22T06:09:08.910Z,98380.25
2022-11-22T06:12:00.088Z,98376.63
2022-11-22T06:14:49.402Z,98371.88
2022-11-22T06:17:38.811Z,98366.66
2022-11-22T06:20:28.199Z,98366.09
2022-11-22T06:23:17.616Z,98369.59
2022-11-22T06:26:09.804Z,98369.47
2022-11-22T06:29:00.736Z,98370.81
2022-11-22T06:31:50.189Z,98379.75
2022-11-22T06:34:39.588Z,98372.25
2022-11-22T06:37:29.169Z,98368.66
2022-11-22T06:40:19.109Z,98378.69
2022-11-22T06:43:08.416Z,98381.28
2022-11-22T06:46:00.144Z,98394.34
2022-11-22T06:48:50.180Z,98382.91
2022-11-22T06:51:39.503Z,98398.38
2022-11-22T06:54:28.804Z,98395.28
2022-11-22T06:57:18.184Z,98422.50
2022-11-22T07:00:09.829Z,98435.59
2022-11-22T07:03:00.477Z,98437.84
2022-11-22T07:05:52.309Z,98450.59
2022-11-22T07:08:42.542Z,98446.16
2022-11-22T07:11:33.380Z,98469.28
2022-11-22T07:14:22.730Z,98474.56
2022-11-22T07:17:12.036Z,98481.09
2022-11-22T07:20:02.758Z,98491.59
2022-11-22T07:22:52.058Z,98499.09
2022-11-22T07:25:44.501Z,98493.47
2022-11-22T07:28:34.605Z,98488.31
2022-11-22T07:31:23.973Z,98482.25
2022-11-22T07:34:13.397Z,98488.91
2022-11-22T07:37:08.870Z,98489.53
2022-11-22T07:39:58.522Z,98497.63
2022-11-22T07:42:47.972Z,98500.59
2022-11-22T07:45:37.410Z,98496.41
2022-11-22T07:48:26.776Z,98497.66
2022-11-22T07:51:16.281Z,98512.59
2022-11-22T07:54:07.101Z,98507.63
2022-11-22T07:56:56.464Z,98507.00
2022-11-22T07:59:46.060Z,98516.56
2022-11-22T08:02:37.531Z,98519.53
2022-11-22T08:05:27.803Z,98530.72
2022-11-22T08:08:17.280Z,98530.44
2022-11-22T08:11:09.244Z,98534.75
2022-11-22T08:13:58.914Z,98551.16
2022-11-22T08:16:48.215Z,98556.84
2022-11-22T08:19:37.581Z,98563.38
2022-11-22T08:22:26.972Z,98559.63
2022-11-22T08:25:16.239Z,98566.84
2022-11-22T08:28:07.565Z,98568.63
2022-11-22T08:31:02.804Z,98569.09
2022-11-22T08:33:55.150Z,98572.91
2022-11-22T08:36:44.525Z,98579.81
2022-11-22T08:39:33.909Z,98578.69
2022-11-22T08:42:23.318Z,98589.19
2022-11-22T08:45:14.120Z,98577.88
2022-11-22T08:48:03.349Z,98582.31
2022-11-22T08:50:53.834Z,98585.50
2022-11-22T08:53:45.196Z,98584.72
2022-11-22T08:56:34.712Z,98580.19
2022-11-22T08:59:24.306Z,98575.44
2022-11-22T09:02:15.065Z,98570.97
2022-11-22T09:05:04.401Z,98570.00
2022-11-22T09:11:03.390Z,98588.41
2022-11-22T09:13:53.286Z,98589.91
2022-11-22T09:16:42.894Z,98584.94
2022-11-22T09:19:33.926Z,98579.78
2022-11-22T09:22:28.207Z,98588.19
2022-11-22T09:25:18.008Z,98600.56
2022-11-22T09:28:07.377Z,98597.44
2022-11-22T09:31:01.852Z,98585.78
2022-11-22T09:33:51.748Z,98585.59
2022-11-22T09:36:42.587Z,98591.72
2022-11-22T09:39:32.109Z,98581.06
2022-11-22T09:43:03.686Z,98594.09
2022-11-22T09:46:30.216Z,98598.56
2022-11-22T09:49:31.286Z,98600.50
2022-11-22T09:52:29.321Z,98603.69
2022-11-22T09:55:27.169Z,98606.84
2022-11-22T09:58:29.261Z,98606.31
2022-11-22T10:01:22.802Z,98613.44
2022-11-22T10:04:18.568Z,98621.91
2022-11-22T10:07:15.852Z,98623.16
2022-11-22T10:10:13.087Z,98624.09
2022-11-22T10:13:07.775Z,98628.75
2022-11-22T10:16:04.818Z,98629.44
2022-11-22T10:19:02.233Z,98627.53
2022-11-22T10:21:51.728Z,98627.31
2022-11-22T10:24:41.645Z,98628.34
2022-11-22T10:27:34.107Z,98640.59
2022-11-22T10:30:23.475Z,98633.13
2022-11-22T10:33:20.111Z,98625.41
2022-11-22T10:36:28.583Z,98645.34
2022-11-22T10:39:34.699Z,98636.06
2022-11-22T10:42:59.019Z,98640.59
2022-11-22T10:45:57.370Z,98643.00
2022-11-22T10:48:56.254Z,98631.31
2022-11-22T10:51:58.556Z,98634.16
2022-11-22T10:54:57.510Z,98638.88
2022-11-22T10:58:01.110Z,98645.44
2022-11-22T11:00:58.714Z,98653.47
2022-11-22T11:03:52.536Z,98659.63
2022-11-22T11:07:15.415Z,98651.94
2022-11-22T11:10:20.356Z,98648.06
2022-11-22T11:13:30.451Z,98656.22
2022-11-22T11:16:23.881Z,98641.25
2022-11-22T11:19:19.942Z,98654.66
2022-11-22T11:22:36.031Z,98653.84
2022-11-22T11:25:31.450Z,98663.94
2022-11-22T11:28:24.895Z,98662.94
2022-11-22T11:31:15.886Z,98665.06
2022-11-22T11:34:22.428Z,98667.47
2022-11-22T11:37:33.611Z,98662.34
2022-11-22T11:40:31.333Z,98674.81
2022-11-22T11:43:24.434Z,98672.31
2022-11-22T11:46:19.930Z,98671.41
2022-11-22T11:49:13.038Z,98677.63
2022-11-22T11:52:06.569Z,98671.84
2022-11-22T11:54:59.038Z,98673.91
2022-11-22T11:57:49.088Z,98689.97
2022-11-22T12:00:41.240Z,98689.09
2022-11-22T12:03:32.419Z,98683.75
2022-11-22T12:06:21.726Z,98692.94
2022-11-22T12:09:31.599Z,98704.75
2022-11-22T12:12:44.334Z,98704.16
2022-11-22T12:15:48.177Z,98699.06
2022-11-22T12:18:47.531Z,98689.75
2022-11-22T12:21:48.676Z,98697.50
2022-11-22T12:25:09.777Z,98694.63
2022-11-22T12:27:53.910Z,98697.25
2022-11-22T12:30:46.387Z,98682.75
2022-11-22T12:33:41.295Z,98686.81
2022-11-22T12:36:39.713Z,98682.53
2022-11-22T12:39:31.925Z,98681.63
2022-11-22T12:42:29.953Z,98676.84
2022-11-22T12:45:29.395Z,98682.72
2022-11-22T12:48:26.817Z,98682.38
2022-11-22T12:51:27.419Z,98685.44
2022-11-22T12:54:22.221Z,98671.06
2022-11-22T12:57:22.196Z,98671.41
2022-11-22T13:00:18.365Z,98674.34
2022-11-22T13:03:15.214Z,98669.22
2022-11-22T13:06:10.164Z,98672.75
2022-11-22T13:09:04.469Z,98675.25
2022-11-22T13:12:01.366Z,98675.59
2022-11-22T13:14:55.335Z,98668.78
2022-11-22T13:17:44.982Z,98676.84
2022-11-22T13:20:42.964Z,98676.94
2022-11-22T13:24:06.333Z,98670.50
2022-11-22T13:27:10.544Z,98662.69
2022-11-22T13:30:03.068Z,98665.63
2022-11-22T13:32:55.366Z,98661.66
2022-11-22T13:35:44.777Z,98664.97
2022-11-22T13:38:38.303Z,98678.22
2022-11-22T13:41:32.559Z,98681.38
2022-11-22T13:44:39.500Z,98695.88
2022-11-22T13:47:43.899Z,98689.09
2022-11-22T13:51:03.821Z,98693.03
2022-11-22T13:54:41.489Z,98688.75
2022-11-22T13:57:38.011Z,98688.31
2022-11-22T14:00:48.556Z,98692.47
2022-11-22T14:03:43.377Z,98676.84
2022-11-22T14:06:33.180Z,98684.78
2022-11-22T14:09:41.670Z,98680.69
2022-11-22T14:13:22.278Z,98681.16
2022-11-22T14:16:29.314Z,98670.50
2022-11-22T14:19:53.478Z,98658.91
2022-11-22T14:22:57.140Z,98661.84
2022-11-22T14:26:13.000Z,98658.25
2022-11-22T14:30:06.000Z,98655.63
2022-11-22T14:33:05.106Z,98653.06
2022-11-22T14:36:17.623Z,98653.50
2022-11-22T14:40:01.748Z,98642.84
2022-11-22T14:42:57.975Z,98637.94
2022-11-22T14:45:53.367Z,98633.47
2022-11-22T14:48:52.523Z,98627.72
2022-11-22T14:51:43.286Z,98635.19
2022-11-22T14:54:45.343Z,98630.97
2022-11-22T14:57:38.042Z,98623.25
2022-11-22T15:00:48.023Z,98626.78
2022-11-22T15:09:14.153Z,98614.31
2022-11-22T15:09:22.563Z,98619.84
2022-11-22T15:11:35.833Z,98601.03
2022-11-22T15:57:34.946Z,98622.56
2022-11-22T16:00:27.334Z,98626.63
2022-11-22T16:03:27.088Z,98613.25
2022-11-22T16:06:30.890Z,98621.22
2022-11-22T16:09:35.553Z,98623.50
2022-11-22T16:12:32.069Z,98636.34
2022-11-22T16:15:30.486Z,98637.38
2022-11-22T16:18:28.286Z,98640.78
2022-11-22T16:21:31.714Z,98639.09
2022-11-22T16:24:20.869Z,98634.31
2022-11-22T16:27:16.337Z,98631.94
2022-11-22T16:30:13.088Z,98634.31
2022-11-22T16:33:02.304Z,98638.75
2022-11-22T16:35:55.394Z,98635.34
2022-11-22T16:38:46.433Z,98636.81
2022-11-22T16:41:36.568Z,98629.09
2022-11-22T16:44:26.200Z,98630.69
2022-11-22T16:47:19.500Z,98627.44
2022-11-22T16:50:13.668Z,98626.41
2022-11-22T16:53:03.155Z,98625.69
2022-11-22T16:55:54.018Z,98630.94
2022-11-22T16:58:43.479Z,98628.19
2022-11-22T17:01:35.754Z,98625.16
2022-11-22T17:04:27.101Z,98626.97
2022-11-22T17:07:17.085Z,98623.59
2022-11-22T17:10:07.836Z,98622.09
2022-11-22T17:12:58.752Z,98617.84
2022-11-22T17:15:48.779Z,98617.72
2022-11-22T17:18:38.451Z,98607.66
2022-11-22T17:21:35.848Z,98606.72
2022-11-22T17:24:26.894Z,98614.44
2022-11-22T17:27:16.460Z,98610.81
2022-11-22T17:30:09.515Z,98613.97
2022-11-22T17:32:58.963Z,98612.28
2022-11-22T17:35:48.308Z,98613.41
2022-11-22T17:38:37.533Z,98608.41
2022-11-22T17:41:27.469Z,98596.91
2022-11-22T17:44:19.381Z,98591.31
2022-11-22T17:47:10.131Z,98591.22
2022-11-22T17:49:59.459Z,98593.69
2022-11-22T17:52:48.978Z,98595.97
2022-11-22T17:56:08.900Z,98584.31
2022-11-22T17:58:49.852Z,98592.13
2022-11-22T18:01:39.224Z,98578.44
2022-11-22T18:04:30.352Z,98577.63
2022-11-22T18:07:20.853Z,98577.28
2022-11-22T18:10:11.712Z,98569.34
2022-11-22T18:13:20.824Z,98561.56
2022-11-22T18:16:14.779Z,98563.03
2022-11-22T18:19:04.081Z,98566.41
2022-11-22T18:21:54.706Z,98559.63
2022-11-22T18:24:44.209Z,98559.06
2022-11-22T18:27:40.709Z,98561.19
2022-11-22T18:30:34.335Z,98561.88
2022-11-22T18:33:23.858Z,98557.44
2022-11-22T18:39:38.520Z,98538.88
2022-11-22T18:42:28.311Z,98534.13
2022-11-22T18:45:19.789Z,98525.63
2022-11-22T18:48:09.234Z,98535.03
2022-11-22T18:51:03.704Z,98532.53
2022-11-22T18:53:53.069Z,98523.78
2022-11-22T18:56:43.878Z,98522.22
2022-11-22T18:59:33.336Z,98512.13
2022-11-22T19:02:25.947Z,98508.47
2022-11-22T19:05:15.328Z,98512.44
2022-11-22T19:08:04.632Z,98508.47
2022-11-22T19:10:58.313Z,98502.94
2022-11-22T19:13:49.328Z,98499.31
2022-11-22T19:16:38.761Z,98501.91
2022-11-22T19:19:32.250Z,98505.16
2022-11-22T19:22:21.589Z,98514.63
2022-11-22T19:25:11.373Z,98504.19
2022-11-22T19:28:00.566Z,98523.53
2022-11-22T19:30:51.392Z,98517.94
2022-11-22T19:33:41.043Z,98514.00
2022-11-22T19:36:33.773Z,98507.00
2022-11-22T19:39:23.372Z,98510.16
2022-11-22T19:42:13.215Z,98496.94
2022-11-22T19:45:03.343Z,98489.13
2022-11-22T19:47:54.083Z,98492.50
2022-11-22T19:50:43.825Z,98473.75
2022-11-22T19:53:33.158Z,98479.81
2022-11-22T19:56:22.890Z,98473.69
2022-11-22T19:59:16.078Z,98487.22
2022-11-22T20:02:05.371Z,98479.78
2022-11-22T20:04:56.897Z,98478.19
2022-11-22T20:07:46.303Z,98475.97
2022-11-22T20:10:38.397Z,98480.34
2022-11-22T20:13:27.768Z,98471.25
2022-11-22T20:16:22.164Z,98476.69
2022-11-22T20:19:12.754Z,98475.78
2022-11-22T20:22:07.166Z,98476.41
2022-11-22T20:24:56.672Z,98469.09
2022-11-22T20:27:46.133Z,98464.16
2022-11-22T20:30:35.924Z,98454.09
2022-11-22T20:33:26.175Z,98437.44
2022-11-22T20:36:18.710Z,98437.84
2022-11-22T20:39:10.947Z,98422.63
2022-11-22T20:42:32.117Z,98418.94
2022-11-22T20:45:11.096Z,98410.47
2022-11-22T20:48:00.463Z,98395.66
2022-11-22T20:50:52.268Z,98395.53
2022-11-22T20:53:42.111Z,98388.75
2022-11-22T20:56:33.383Z,98381.91
2022-11-22T20:59:22.725Z,98365.84
2022-11-22T21:02:12.403Z,98363.81
2022-11-22T21:05:01.777Z,98364.34
2022-11-22T21:07:51.270Z,98368.06
2022-11-22T21:10:40.719Z,98366.22
2022-11-22T21:13:32.239Z,98371.63
2022-11-22T21:16:25.119Z,98364.38
2022-11-22T21:19:15.026Z,98375.41
2022-11-22T21:22:04.391Z,98368.72
2022-11-22T21:24:53.732Z,98354.13
2022-11-22T21:27:43.221Z,98364.31
2022-11-22T21:30:33.946Z,98363.88
2022-11-22T21:33:23.885Z,98350.97
2022-11-22T21:36:13.541Z,98350.06
2022-11-22T21:39:03.097Z,98351.97
2022-11-22T21:41:52.468Z,98342.47
2022-11-22T21:44:41.818Z,98344.56
2022-11-22T21:47:32.880Z,98340.63
2022-11-22T21:50:22.455Z,98338.88
2022-11-22T21:53:11.954Z,98328.28
2022-11-22T21:56:03.983Z,98331.44
2022-11-22T21:58:53.496Z,98333.19
2022-11-22T22:01:42.885Z,98346.50
2022-11-22T22:04:33.886Z,98351.13
2022-11-22T22:07:45.107Z,98354.78
2022-11-22T22:10:32.773Z,98359.53
2022-11-22T22:13:22.022Z,98356.50
2022-11-22T22:16:18.877Z,98349.66
2022-11-22T22:19:09.575Z,98336.91
2022-11-22T22:22:00.586Z,98331.28
2022-11-22T22:24:50.235Z,98323.66
2022-11-22T22:27:39.545Z,98333.03
2022-11-22T22:30:28.804Z,98337.63
2022-11-22T22:33:18.237Z,98336.97
2022-11-22T22:36:09.549Z,98324.38
2022-11-22T22:39:00.362Z,98307.00
2022-11-22T22:41:49.732Z,98285.34
2022-11-22T22:44:39.049Z,98281.19
2022-11-22T22:47:30.942Z,98265.63
2022-11-22T22:50:21.652Z,98269.66
2022-11-22T22:53:11.098Z,98258.38
2022-11-22T22:56:02.260Z,98256.63
2022-11-22T22:58:56.171Z,98247.16
2022-11-22T23:01:45.487Z,98226.94
2022-11-22T23:04:34.938Z,98222.66
2022-11-22T23:07:24.272Z,98216.34
2022-11-22T23:10:13.704Z,98215.34
2022-11-22T23:13:04.706Z,98198.31
2022-11-22T23:15:58.282Z,98179.81
2022-11-22T23:18:48.159Z,98184.59
2022-11-22T23:21:37.913Z,98154.59
2022-11-22T23:24:27.439Z,98149.94
2022-11-22T23:27:16.686Z,98151.09
2022-11-22T23:30:09.807Z,98131.59
2022-11-22T23:32:58.883Z,98133.41
2022-11-22T23:35:48.260Z,98148.66
2022-11-22T23:38:37.836Z,98158.03
2022-11-22T23:41:27.327Z,98157.00
2022-11-22T23:44:16.649Z,98139.41
2022-11-22T23:47:07.423Z,98128.34
2022-11-22T23:49:56.771Z,98118.03
2022-11-22T23:52:46.226Z,98112.38
2022-11-22T23:55:35.605Z,98102.22
2022-11-22T23:58:24.854Z,98097.47
